KJMR

Mora Municipal Airport

Mora, Minnesota, USA
METAR KJMR 122157Z AUTO 00000KT 5SM BR OVC011 M02/M05 A2978 RMK AO2
Observed Flight Rules
Dec-12 @ 21:57 UTC (33 minutes ago) Marginal Visual Flight Rules
Visibility Clouds Conditions
5 miles
  • Overcast at 1,100' AGL
  • Mist
Temperatures Readings
Current -2°C / 28°F
Dewpoint -5°C / 23°F
Humidity 80%
Altimeter 29.78" Hg
Pressure 1008 hPa
Elevation 309
METAR KJMR 122157Z AUTO 00000KT 5SM BR OVC011 M02/M05 A2978 RMK AO2
Observed Flight Rules
Dec-12 @ 21:57 UTC
(33 minutes ago)
MVFR
Clouds
  • Overcast at 1,100' AGL
Conditions
  • Mist
Temperature Dewpoint
-2°C / 28°F -5°C / 23°F
Humidity Altimeter Pressure
80% 29.78" Hg 1008 hPa